LFTW/FNI METAR and TAF weather

Enter ICAO airport designator
Station Type Date Time Source
LFTW METAR 2020/01/23 21:00 UTC NOAA

LFTW 232100Z AUTO 12008KT 9999 BKN048 BKN240 11/08 Q1025


Station Type Date Time Source
LFTW Decoded METAR 2020/01/23 21:00 UTC NOAA

Nimes / Garons, France (LFTW) 43-45N 004-25E 96M
Jan 23, 2020 - 04:00 PM EST / 2020.01.23 2100 UTC
Wind: from the ESE (120 degrees) at 9 MPH (8 KT):0
Visibility: greater than 7 mile(s):0
Sky conditions: mostly cloudy
Temperature: 51 F (11 C)
Dew Point: 46 F (8 C)
Relative Humidity: 81%
Pressure (altimeter): 30.27 in. Hg (1025 hPa)
ob: LFTW 232100Z AUTO 12008KT 9999 BKN048 BKN240 11/08 Q1025
cycle: 21

Station Type Date Time Source
LFTW TAF 2020/01/23 19:09 UTC NOAA

TAF TAF LFTW 231904Z 2319/2415 CNL

Example: see airport list